Login to view Products
 
Tuesday, January 22, 2019 (09:22 UTC)
Ras Al Khaimah International Airport
ICAO: OMRK
IATA: RKT
  • METAR OMRK 220900Z 25006KT 9999 SCT040 23/09 Q1017 A3004=
  • TAF OMRK 220500Z 2206/2312 19005KT 9999 FEW040 BECMG 2207/2209 28010KT BECMG 2215/2217 19005KT PROB30 2222/2305 3000 HZ BECMG 2307/2309 29010KT=
D:\Input Parser\Destinations\Final\05\OMRKL06120500900434228.txt
1